createdAt,value
2019-04-23T00:10:00.000Z,12.1
2019-04-23T00:16:00.000Z,12.1
2019-04-23T00:28:00.000Z,11.9
2019-04-23T00:40:00.000Z,11.8
2019-04-23T00:46:00.000Z,11.8
2019-04-23T00:51:00.000Z,11.7
2019-04-23T00:57:00.000Z,11.7
2019-04-23T01:03:00.000Z,11.6
2019-04-23T01:09:00.000Z,11.6
2019-04-23T01:15:00.000Z,11.6
2019-04-23T01:21:00.000Z,11.6
2019-04-23T01:26:00.000Z,11.6
2019-04-23T01:32:00.000Z,11.7
2019-04-23T01:38:00.000Z,11.6
2019-04-23T01:56:00.000Z,11.6
2019-04-23T02:01:00.000Z,11.6
2019-04-23T02:08:00.000Z,11.6
2019-04-23T02:14:00.000Z,11.5
2019-04-23T02:20:00.000Z,11.4
2019-04-23T02:31:00.000Z,11.2
2019-04-23T02:43:00.000Z,11.0
2019-04-23T02:55:00.000Z,10.8
2019-04-23T03:02:00.000Z,10.7
2019-04-23T03:08:00.000Z,10.7
2019-04-23T03:14:00.000Z,10.7
2019-04-23T03:21:00.000Z,10.6
2019-04-23T03:40:00.000Z,10.5
2019-04-23T03:53:00.000Z,10.5
2019-04-23T03:59:00.000Z,10.5
2019-04-23T04:05:00.000Z,10.5
2019-04-23T04:11:00.000Z,10.5
2019-04-23T04:17:00.000Z,10.6
2019-04-23T04:28:00.000Z,10.7
2019-04-23T04:34:00.000Z,10.7
2019-04-23T04:40:00.000Z,10.8
2019-04-23T04:47:00.000Z,10.8
2019-04-23T04:53:00.000Z,10.9
2019-04-23T04:59:00.000Z,11.0
2019-04-23T05:05:00.000Z,11.0
2019-04-23T05:12:00.000Z,11.1
2019-04-23T05:18:00.000Z,11.2
2019-04-23T05:29:00.000Z,11.2
2019-04-23T05:35:00.000Z,11.2
2019-04-23T05:41:00.000Z,11.4
2019-04-23T05:47:00.000Z,11.5
2019-04-23T05:53:00.000Z,11.6
2019-04-23T05:59:00.000Z,11.6
2019-04-23T06:05:00.000Z,11.7
2019-04-23T06:17:00.000Z,12.1
2019-04-23T06:28:00.000Z,12.4
2019-04-23T06:34:00.000Z,12.5
2019-04-23T06:40:00.000Z,12.6
2019-04-23T06:46:00.000Z,12.7
2019-04-23T06:52:00.000Z,12.7
2019-04-23T06:58:00.000Z,12.7
2019-04-23T07:05:00.000Z,12.8
2019-04-23T07:11:00.000Z,12.9
2019-04-23T07:17:00.000Z,12.9
2019-04-23T07:23:00.000Z,12.9
2019-04-23T07:28:00.000Z,13.0
2019-04-23T07:40:00.000Z,13.0
2019-04-23T07:58:00.000Z,13.4
2019-04-23T08:10:00.000Z,13.6
2019-04-23T08:16:00.000Z,13.7
2019-04-23T08:22:00.000Z,13.7
2019-04-23T08:28:00.000Z,13.7
2019-04-23T08:34:00.000Z,13.6
2019-04-23T08:40:00.000Z,13.5
2019-04-23T08:47:00.000Z,13.3
2019-04-23T08:59:00.000Z,13.3
2019-04-23T09:05:00.000Z,13.2
2019-04-23T09:17:00.000Z,13.0
2019-04-23T09:23:00.000Z,12.9
2019-04-23T09:29:00.000Z,12.8
2019-04-23T09:35:00.000Z,12.9
2019-04-23T09:52:00.000Z,13.0
2019-04-23T09:57:00.000Z,13.0
2019-04-23T10:03:00.000Z,13.2
2019-04-23T10:09:00.000Z,13.3
2019-04-23T10:14:00.000Z,13.4
2019-04-23T10:19:00.000Z,13.7
2019-04-23T10:24:00.000Z,13.8
2019-04-23T10:29:00.000Z,13.9
2019-04-23T10:35:00.000Z,13.9
2019-04-23T10:40:00.000Z,13.9
2019-04-23T10:51:00.000Z,13.7
2019-04-23T10:57:00.000Z,13.6
2019-04-23T11:03:00.000Z,13.4
2019-04-23T11:09:00.000Z,13.2
2019-04-23T11:16:00.000Z,12.9
2019-04-23T11:22:00.000Z,12.6
2019-04-23T11:28:00.000Z,12.4
2019-04-23T11:40:00.000Z,11.9
2019-04-23T11:59:00.000Z,11.4
2019-04-23T12:04:00.000Z,11.3
2019-04-23T12:16:00.000Z,11.5
2019-04-23T12:34:00.000Z,11.9
2019-04-23T12:40:00.000Z,11.9
2019-04-23T12:46:00.000Z,11.8
2019-04-23T12:52:00.000Z,11.8
2019-04-23T12:58:00.000Z,11.7
2019-04-23T13:04:00.000Z,11.7
2019-04-23T13:10:00.000Z,11.6
2019-04-23T13:22:00.000Z,11.6
2019-04-23T13:28:00.000Z,11.5
2019-04-23T13:34:00.000Z,11.4
2019-04-23T13:40:00.000Z,11.3
2019-04-23T13:52:00.000Z,11.2
2019-04-23T14:04:00.000Z,11.1
2019-04-23T14:27:00.000Z,10.9
2019-04-23T14:34:00.000Z,10.8
2019-04-23T14:39:00.000Z,10.9
2019-04-23T14:46:00.000Z,10.9
2019-04-23T14:57:00.000Z,11.0
2019-04-23T15:04:00.000Z,11.0
2019-04-23T15:10:00.000Z,10.8
2019-04-23T15:16:00.000Z,10.8
2019-04-23T15:22:00.000Z,10.7
2019-04-23T15:28:00.000Z,10.7
2019-04-23T15:33:00.000Z,10.7
2019-04-23T15:40:00.000Z,10.7
2019-04-23T15:52:00.000Z,10.7
2019-04-23T15:58:00.000Z,10.7
2019-04-23T16:04:00.000Z,10.8
2019-04-23T16:15:00.000Z,10.9
2019-04-23T16:21:00.000Z,10.8
2019-04-23T16:33:00.000Z,10.8
2019-04-23T16:39:00.000Z,10.9
2019-04-23T16:44:00.000Z,10.8
2019-04-23T16:56:00.000Z,10.9
2019-04-23T17:02:00.000Z,10.9
2019-04-23T17:14:00.000Z,10.9
2019-04-23T17:26:00.000Z,10.9
2019-04-23T17:33:00.000Z,11.0
2019-04-23T17:45:00.000Z,11.0
2019-04-23T17:56:00.000Z,11.1
2019-04-23T18:02:00.000Z,11.1
2019-04-23T18:20:00.000Z,11.0
2019-04-23T18:32:00.000Z,11.0
2019-04-23T18:38:00.000Z,11.0
2019-04-23T18:44:00.000Z,11.0
2019-04-23T18:50:00.000Z,11.0
2019-04-23T19:08:00.000Z,10.9
2019-04-23T19:14:00.000Z,10.9
2019-04-23T19:20:00.000Z,10.9
2019-04-23T19:27:00.000Z,10.9
2019-04-23T19:33:00.000Z,11.0
2019-04-23T19:39:00.000Z,11.0
2019-04-23T19:45:00.000Z,11.0
2019-04-23T19:52:00.000Z,11.0
2019-04-23T19:58:00.000Z,11.0
2019-04-23T20:05:00.000Z,11.0
2019-04-23T20:11:00.000Z,11.0
2019-04-23T20:17:00.000Z,11.0
2019-04-23T20:23:00.000Z,11.0
2019-04-23T20:41:00.000Z,11.0
2019-04-23T20:47:00.000Z,11.1
2019-04-23T20:53:00.000Z,11.1
2019-04-23T21:10:00.000Z,11.2
2019-04-23T21:16:00.000Z,11.2
2019-04-23T21:22:00.000Z,11.2
2019-04-23T21:28:00.000Z,11.3
2019-04-23T21:34:00.000Z,11.3
2019-04-23T21:46:00.000Z,11.3
2019-04-23T21:58:00.000Z,11.2
2019-04-23T22:04:00.000Z,11.2
2019-04-23T22:10:00.000Z,11.2
2019-04-23T22:17:00.000Z,11.2
2019-04-23T22:22:00.000Z,11.1
2019-04-23T22:34:00.000Z,11.1
2019-04-23T22:46:00.000Z,11.0
2019-04-23T22:58:00.000Z,11.0
2019-04-23T23:03:00.000Z,11.0
2019-04-23T23:09:00.000Z,11.0
2019-04-23T23:21:00.000Z,10.9
2019-04-23T23:28:00.000Z,10.9
2019-04-23T23:40:00.000Z,10.8
2019-04-23T23:46:00.000Z,10.7
2019-04-23T23:52:00.000Z,10.7
2019-04-23T23:59:00.000Z,10.6
